Flight Track Log - Related Links

Times and Time Zones

All times are in EDT time to prevent confusion due to time zone crossing. See the EJA951 flight status page for this flight to view local times or setup timezone preferences in your user account.

Time Position Orientation Groundspeed Altitude Reporting Facility
EDT Latitude Longitude Course Direction KTS MPH feet Rate Location/Type
Fri 04:02:33 PM 25.0158 -77.3472 North 506 582 6,400  Level Miami Center
Fri 04:03:33 PM 25.1078 -77.3408 North 353 406 9,700 2,500 Climbing Miami Center
Fri 04:04:33 PM 25.1956 -77.3319 North 331 381 11,400 1,500 Climbing Miami Center
Fri 04:05:45 PM 25.2939 -77.3092 12° North 337 388 13,000 1,591 Climbing Miami Center
Fri 04:06:45 PM 25.4089 -77.2544 23° Northeast 350 403 14,900 1,750 Climbing Miami Center
Fri 04:07:45 PM 25.5072 -77.2019 26° Northeast 371 427 16,500 1,550 Climbing Miami Center
Fri 04:08:45 PM 25.5911 -77.1214 41° Northeast 391 450 18,000 1,550 Climbing Miami Center
Fri 04:09:45 PM 25.6850 -77.0525 33° Northeast 391 450 19,600 1,600 Climbing Miami Center
Fri 04:10:45 PM 25.7897 -77.0181 16° North 391 450 21,200 1,600 Climbing Miami Center
Fri 04:11:45 PM 25.9025 -77.0181 360° North 386 444 22,800 1,600 Climbing Miami Center
Fri 04:12:45 PM 26.0175 -77.0206 359° North 397 457 24,400 1,600 Climbing Miami Center
Fri 04:13:45 PM 26.1364 -77.0208 360° North 410 472 26,000 1,600 Climbing Miami Center
Fri 04:14:45 PM 26.2556 -77.0186 North 417 480 27,600 1,600 Climbing Miami Center
Fri 04:15:45 PM 26.3769 -77.0117 North 422 486 29,200 1,550 Climbing Miami Center
Fri 04:16:45 PM 26.4981 -77.0189 357° North 422 486 30,700 1,400 Climbing Miami Center
Fri 04:17:45 PM 26.6086 -77.0561 343° North 422 486 32,000 1,350 Climbing Miami Center
Fri 04:18:45 PM 26.7194 -77.0958 342° North 408 470 33,400 1,450 Climbing Miami Center
Fri 04:19:45 PM 26.8383 -77.1475 339° North 408 470 34,900 1,400 Climbing Miami Center
Fri 04:20:45 PM 26.9447 -77.1803 345° North 414 476 36,200 1,250 Climbing Miami Center
Fri 04:21:45 PM 27.0556 -77.2272 339° North 414 476 37,400 1,200 Climbing Miami Center
Fri 04:22:45 PM 27.1639 -77.2650 343° North 409 471 38,600 1,200 Climbing Miami Center
Fri 04:23:45 PM 27.2767 -77.3119 340° North 414 476 39,800 1,150 Climbing Miami Center
Fri 04:24:45 PM 27.3850 -77.3475 344° North 414 476 40,900 600 Climbing Miami Center
Fri 04:25:45 PM 27.4978 -77.3925 341° North 408 470 41,000 50 Climbing Miami Center
Fri 04:26:45 PM 27.6144 -77.4353 342° North 420 483 41,000  Level Miami Center
Fri 04:27:45 PM 27.7250 -77.4803 340° North 450 518 41,000  Level Miami Center
Fri 04:28:45 PM 27.8711 -77.5306 343° North 470 541 41,000  Level Miami Center
Fri 04:29:45 PM 27.9919 -77.5806 340° North 470 541 41,000  Level Miami Center
Fri 04:30:45 PM 28.1147 -77.6286 341° North 470 541 41,000  Level Miami Center
Fri 04:31:45 PM 28.2233 -77.6433 353° North 480 552 41,000  Level Miami Center
Fri 04:32:45 PM 28.3819 -77.6492 358° North 480 552 41,000  Level Miami Center
Fri 04:33:45 PM 28.5156 -77.6572 357° North 480 552 41,000  Level Miami Center
Fri 04:34:45 PM 28.6469 -77.6628 358° North 482 555 41,000  Level Miami Center
Fri 04:35:45 PM 28.7806 -77.6686 358° North 477 549 41,000  Level Miami Center
Fri 04:36:45 PM 28.9097 -77.6767 357° North 472 543 41,000  Level Miami Center
Fri 04:37:45 PM 29.0392 -77.6847 357° North 472 543 41,000  Level Miami Center
Fri 04:38:45 PM 29.1747 -77.6906 358° North 472 543 41,000  Level Miami Center
Fri 04:39:45 PM 29.3061 -77.6986 357° North 478 550 41,000  Level Miami Center
Fri 04:41:42 PM 29.5514 -77.7031 359° North 440 506 41,000  Level Jacksonville Center
Fri 04:42:42 PM 29.6917 -77.7147 356° North 472 543 41,000  Level Jacksonville Center
Fri 04:43:42 PM 29.8128 -77.7156 360° North 458 527 41,000  Level Jacksonville Center
Fri 04:44:42 PM 29.9489 -77.7250 357° North 471 542 41,000  Level Jacksonville Center
Fri 04:45:42 PM 30.0806 -77.7322 357° North 477 549 41,000  Level Jacksonville Center
Fri 04:46:42 PM 30.2081 -77.7328 360° North 482 555 41,000  Level Jacksonville Center
Fri 04:47:42 PM 30.3436 -77.7325 360° North 482 555 41,000  Level Jacksonville Center
Fri 04:48:42 PM 30.4828 -77.7131 North 487 560 41,000  Level Jacksonville Center
Fri 04:49:42 PM 30.6231 -77.6742 13° North 502 578 41,000  Level Jacksonville Center
Fri 04:50:42 PM 30.7617 -77.6422 11° North 502 578 41,000  Level Jacksonville Center
Fri 04:51:42 PM 30.9000 -77.6103 11° North 502 578 41,000  Level Jacksonville Center
Fri 04:52:42 PM 31.0403 -77.5711 13° North 502 578 41,000  Level Jacksonville Center
Fri 04:53:42 PM 31.1786 -77.5364 12° North 502 578 41,000  Level Jacksonville Center
Fri 04:54:42 PM 31.3186 -77.4897 16° North 507 583 41,000  Level Jacksonville Center
Fri 04:55:42 PM 31.4572 -77.4572 11° North 507 583 41,000  Level Jacksonville Center
Fri 04:56:42 PM 31.5972 -77.4150 14° North 507 583 41,000  Level Jacksonville Center
Fri 04:57:42 PM 31.7356 -77.3775 13° North 507 583 41,000  Level Jacksonville Center
Fri 04:58:42 PM 31.8736 -77.3372 14° North 507 583 41,000  Level Jacksonville Center
Fri 04:59:42 PM 32.0136 -77.2947 14° North 507 583 41,000  Level Jacksonville Center
Fri 05:00:42 PM 32.1497 -77.2594 12° North 507 583 41,000  Level Jacksonville Center
Fri 05:01:42 PM 32.2858 -77.2214 13° North 507 583 41,000  Level Jacksonville Center
Fri 05:02:42 PM 32.4219 -77.1836 13° North 507 583 41,000  Level Jacksonville Center
Fri 05:03:42 PM 32.5597 -77.1428 14° North 502 578 41,000  Level Jacksonville Center
Fri 05:04:42 PM 32.6958 -77.1019 14° North 502 578 41,000  Level Jacksonville Center
Fri 05:06:44 PM 32.9700 -77.0272 13° North 506 582 41,000  Level Washington Center
Fri 05:07:44 PM 33.1061 -76.9900 13° North 506 582 41,000  Level Washington Center
Fri 05:08:45 PM 33.2442 -76.9500 14° North 506 582 41,000  Level Washington Center
Fri 05:09:43 PM 33.3803 -76.9075 15° North 506 582 41,000  Level Washington Center
Fri 05:10:43 PM 33.5206 -76.8672 13° North 506 582 41,000  Level Washington Center
Fri 05:11:45 PM 33.6544 -76.8269 14° North 506 582 41,000  Level Washington Center
Fri 05:12:45 PM 33.7944 -76.7864 14° North 506 582 41,000  Level Washington Center
Fri 05:13:45 PM 33.9472 -76.7411 14° North 499 574 41,000  Level Washington Center
Fri 05:14:43 PM 34.0811 -76.7028 13° North 499 574 41,000  Level Washington Center
Fri 05:15:43 PM 34.2192 -76.6644 13° North 499 574 41,000  Level Washington Center
Fri 05:16:44 PM 34.3511 -76.6233 14° North 499 574 41,000  Level Washington Center
Fri 05:17:45 PM 34.4847 -76.5822 14° North 494 568 41,000  Level Washington Center
Fri 05:18:46 PM 34.6228 -76.5411 14° North 494 568 41,000  Level Washington Center
Fri 05:19:43 PM 34.7567 -76.5022 13° North 487 560 41,000  Level Washington Center
Fri 05:20:44 PM 34.8906 -76.4631 13° North 487 560 41,000  Level Washington Center
Fri 05:21:45 PM 35.0244 -76.4214 14° North 487 560 41,000  Level Washington Center
Fri 05:22:45 PM 35.1436 -76.3819 15° North 487 560 41,000  Level Washington Center
Fri 05:23:43 PM 35.2775 -76.3400 14° North 487 560 41,000  Level Washington Center
Fri 05:24:43 PM 35.4133 -76.3031 12° North 487 560 41,000  Level Washington Center
Fri 05:25:44 PM 35.5492 -76.2608 14° North 487 560 41,000 -49 Level Washington Center
Fri 05:26:45 PM 35.6869 -76.2161 15° North 493 567 40,900  Descending Washington Center
Fri 05:27:45 PM 35.8228 -76.1786 13° North 493 567 41,000 50 Climbing Washington Center
Fri 05:28:46 PM 35.9608 -76.1336 15° North 493 567 41,000  Level Washington Center
Fri 05:29:43 PM 36.0986 -76.0908 14° North 493 567 41,000  Level Washington Center
Fri 05:30:43 PM 36.2344 -76.0478 14° North 493 567 41,000  Level Washington Center
Fri 05:31:44 PM 36.3681 -76.0097 13° North 493 567 41,000  Level Washington Center
Fri 05:32:45 PM 36.4956 -75.9667 15° North 479 551 41,000  Level Washington Center
Fri 05:33:43 PM 36.6269 -75.9258 14° North 479 551 41,000  Level Washington Center
Fri 05:34:43 PM 36.7733 -75.8797 14° North 474 545 41,000  Level Washington Center
Fri 05:35:44 PM 36.9069 -75.8386 14° North 480 552 41,000  Level Washington Center
Fri 05:36:43 PM 37.0467 -75.7950 14° North 495 570 41,000  Level Washington Center
Fri 05:37:44 PM 37.1803 -75.7508 15° North 501 577 41,000  Level Washington Center
Fri 05:38:44 PM 37.3139 -75.7094 14° North 496 571 41,000  Level Washington Center
Fri 05:39:45 PM 37.4453 -75.6650 15° North 485 558 41,000  Level Washington Center
Fri 05:40:43 PM 37.5767 -75.6233 14° North 485 558 41,000  Level Washington Center
Fri 05:41:43 PM 37.7081 -75.5814 14° North 485 558 41,000  Level Washington Center
Fri 05:42:44 PM 37.8394 -75.5444 13° North 480 552 41,000  Level Washington Center
Fri 05:43:45 PM 37.9686 -75.4942 17° North 480 552 41,000  Level Washington Center
Fri 05:44:45 PM 38.0958 -75.4467 16° North 480 552 41,000  Level Washington Center
Fri 05:45:45 PM 38.2208 -75.3697 26° Northeast 485 558 41,000  Level Washington Center
Fri 05:46:43 PM 38.3269 -75.2925 30° Northeast 485 558 41,000  Level Washington Center
Fri 05:47:44 PM 38.4497 -75.2206 25° Northeast 485 558 41,000  Level Washington Center
Fri 05:48:45 PM 38.5664 -75.1431 27° Northeast 478 550 41,000 -50 Level Washington Center
Fri 05:49:43 PM 38.6892 -75.0678 26° Northeast 478 550 40,900 -605 Descending Washington Center
Fri 05:50:44 PM 38.8053 -74.9897 28° Northeast 473 544 39,800 -1,339 Descending Washington Center
Fri 05:51:44 PM 38.9281 -74.9111 26° Northeast 473 544 38,200 -1,525 Descending Washington Center
Fri 05:52:46 PM 39.0464 -74.8381 26° Northeast 468 539 36,700 -1,500 Descending Washington Center
Fri 05:53:44 PM 39.1583 -74.7378 35° Northeast 474 545 35,200 -1,831 Descending Washington Center
Fri 05:54:44 PM 39.2658 -74.6267 39° Northeast 488 562 33,100 -3,032 Descending Washington Center
Fri 05:56:52 PM 39.4931 -74.3892 39° Northeast 474 545 25,700 -2,889 Descending New York Center
Fri 05:57:53 PM 39.5922 -74.2864 39° Northeast 463 533 24,000 -1,059 Descending New York Center
Fri 05:58:51 PM 39.6892 -74.1808 40° Northeast 458 527 23,600 -694 Descending New York Center
Fri 05:59:54 PM 39.7878 -74.0803 38° Northeast 458 527 22,600 -1,015 Descending New York Center
Fri 06:02:12 PM 40.0033 -73.8469 40° Northeast 427 491 20,200 -1,025 Descending Boston Center
Fri 06:03:13 PM 40.0964 -73.7475 39° Northeast 432 497 19,200 -927 Descending Boston Center
Fri 06:04:15 PM 40.1783 -73.6611 39° Northeast 421 484 18,300 -976 Descending Boston Center
Fri 06:05:16 PM 40.2831 -73.5478 40° Northeast 409 471 17,200 -639 Descending Boston Center
Fri 06:06:17 PM 40.3747 -73.4564 37° Northeast 412 474 17,000 -98 Descending Boston Center
Fri 06:07:19 PM 40.4806 -73.4158 16° North 400 460 17,000 -244 Level Boston Center
Fri 06:08:20 PM 40.5867 -73.3792 15° North 393 452 16,500 -829 Descending Boston Center
Fri 06:09:22 PM 40.6769 -73.3467 15° North 337 388 15,300 -732 Descending Boston Center
Fri 06:10:23 PM 40.7619 -73.3150 16° North 319 367 15,000 -829 Descending Boston Center
Fri 06:11:25 PM 40.8261 -73.2339 44° Northeast 331 381 13,600 -1,512 Descending Boston Center
Fri 06:12:26 PM 40.8750 -73.1350 57° Northeast 323 372 11,900 -1,268 Descending Boston Center
Fri 06:13:28 PM 40.9247 -73.0353 57° Northeast 324 373 11,000 -992 Descending Boston Center
Fri 06:14:27 PM 41.0000 -72.9500 41° Northeast 297 342 9,900 -1,462 Descending New York TRACON
Fri 06:15:27 PM 41.0333 -73.0167 304° West 249 287 8,100 -1,800 Descending New York TRACON
Fri 06:16:27 PM 41.0667 -73.1000 298° West 231 266 6,300 -1,750 Descending New York TRACON
Fri 06:17:27 PM 41.0833 -73.1833 285° West 230 265 4,600 -1,109 Descending New York TRACON
Fri 06:18:26 PM 41.1167 -73.2500 304° West 235 270 4,100 -300 Descending New York TRACON
Fri 06:19:27 PM 41.1333 -73.3333 285° West 246 283 4,000 -397 Descending New York TRACON
Fri 06:20:27 PM 41.1500 -73.4167 285° West 227 261 3,300 -450 Descending New York TRACON
Fri 06:21:27 PM 41.1667 -73.5000 285° West 225 259 3,100 -150 Descending New York TRACON
Fri 06:22:27 PM 41.1833 -73.5833 285° West 226 260 3,000  Descending New York TRACON
Fri 06:23:27 PM 41.1833 -73.6667 270° West 195 224 3,100 -300 Climbing New York TRACON
Fri 06:25:27 PM 41.1667 -73.7500 255° West 153 176 2,100 -504 Descending New York TRACON
Fri 06:27:49 PM 41.0903 -73.7267 167° South 138 159 900 -384 Descending Boston Center
Fri 06:28:50 PM 41.0597 -73.7056 152° Southeast 135 155 800 -98 Descending Boston Center
Fri 06:30:00 PM 41.0667 -73.7000 North  Level FlightAware Approximate

Login

Don't have an account? Register now (free) for customized features, flight alerts, and more!